createdAt,value
2019-05-20T00:01:14.602Z,38.73
2019-05-20T00:03:42.943Z,35.52
2019-05-20T00:06:11.491Z,37.48
2019-05-20T00:08:39.969Z,33.60
2019-05-20T00:11:08.482Z,34.83
2019-05-20T00:13:36.751Z,26.15
2019-05-20T00:16:05.255Z,34.55
2019-05-20T00:18:34.805Z,28.23
2019-05-20T00:21:03.125Z,28.95
2019-05-20T00:23:31.497Z,27.02
2019-05-20T00:26:00.030Z,24.67
2019-05-20T00:28:28.347Z,25.08
2019-05-20T00:30:56.614Z,19.70
2019-05-20T00:33:24.903Z,22.48
2019-05-20T00:35:53.347Z,18.45
2019-05-20T00:38:21.679Z,19.05
2019-05-20T00:40:50.157Z,21.00
2019-05-20T00:43:18.437Z,21.85
2019-05-20T00:45:46.848Z,26.40
2019-05-20T00:48:15.185Z,28.38
2019-05-20T00:50:43.662Z,19.50
2019-05-20T00:53:12.095Z,21.52
2019-05-20T00:55:40.610Z,27.67
2019-05-20T00:58:09.139Z,25.68
2019-05-20T01:00:37.508Z,22.60
2019-05-20T01:03:05.926Z,21.00
2019-05-20T01:05:34.698Z,25.82
2019-05-20T01:08:02.974Z,21.42
2019-05-20T01:10:32.096Z,20.20
2019-05-20T01:13:00.533Z,30.47
2019-05-20T01:15:29.078Z,22.32
2019-05-20T01:17:57.381Z,24.05
2019-05-20T01:20:25.784Z,22.10
2019-05-20T01:22:54.330Z,21.62
2019-05-20T01:25:22.785Z,19.92
2019-05-20T01:27:51.214Z,19.17
2019-05-20T01:30:19.660Z,24.82
2019-05-20T01:32:48.082Z,21.93
2019-05-20T01:35:16.676Z,17.25
2019-05-20T01:37:45.161Z,17.62
2019-05-20T01:40:13.585Z,18.62
2019-05-20T01:42:41.922Z,17.57
2019-05-20T01:45:10.267Z,19.25
2019-05-20T01:47:38.877Z,14.93
2019-05-20T01:50:07.647Z,18.98
2019-05-20T01:52:36.082Z,18.48
2019-05-20T01:55:06.521Z,25.50
2019-05-20T01:57:34.999Z,20.00
2019-05-20T02:00:05.306Z,19.10
2019-05-20T02:02:33.852Z,16.45
2019-05-20T02:05:06.344Z,17.60
2019-05-20T02:07:35.499Z,19.00
2019-05-20T02:10:07.266Z,17.70
2019-05-20T02:12:35.815Z,21.75
2019-05-20T02:15:23.702Z,19.70
2019-05-20T02:17:52.403Z,18.20
2019-05-20T02:20:20.822Z,14.98
2019-05-20T02:22:49.089Z,20.45
2019-05-20T02:25:17.582Z,16.10
2019-05-20T02:27:46.011Z,18.42
2019-05-20T02:30:14.322Z,23.47
2019-05-20T02:32:42.695Z,22.70
2019-05-20T02:35:11.089Z,21.00
2019-05-20T02:37:39.363Z,19.00
2019-05-20T02:40:08.272Z,18.82
2019-05-20T02:42:36.637Z,21.35
2019-05-20T02:45:06.828Z,26.73
2019-05-20T02:47:35.243Z,25.77
2019-05-20T02:50:04.721Z,20.45
2019-05-20T02:52:33.136Z,16.90
2019-05-20T02:55:01.752Z,19.10
2019-05-20T02:57:30.816Z,21.85
2019-05-20T02:59:59.678Z,25.00
2019-05-20T03:02:36.776Z,22.48
2019-05-20T03:05:02.746Z,28.12
2019-05-20T03:07:31.207Z,29.35
2019-05-20T03:09:59.813Z,29.12
2019-05-20T03:12:31.130Z,22.73
2019-05-20T03:15:00.038Z,23.02
2019-05-20T03:17:28.425Z,22.22
2019-05-20T03:19:56.901Z,22.87
2019-05-20T03:22:25.229Z,20.15
2019-05-20T03:24:53.672Z,23.27
2019-05-20T03:27:22.064Z,23.70
2019-05-20T03:29:50.602Z,23.87
2019-05-20T03:32:21.069Z,22.58
2019-05-20T03:34:58.500Z,26.00
2019-05-20T03:39:50.309Z,26.57
2019-05-20T03:42:18.611Z,25.30
2019-05-20T03:44:46.911Z,30.95
2019-05-20T03:47:15.516Z,28.00
2019-05-20T03:49:43.866Z,29.12
2019-05-20T03:52:12.168Z,29.95
2019-05-20T03:54:40.678Z,27.22
2019-05-20T03:57:09.539Z,28.92
2019-05-20T03:59:40.600Z,23.47
2019-05-20T04:02:09.102Z,23.00
2019-05-20T04:04:37.656Z,23.02
2019-05-20T04:07:07.970Z,24.40
2019-05-20T04:09:36.968Z,26.15
2019-05-20T04:12:08.192Z,20.57
2019-05-20T04:14:43.099Z,22.73
2019-05-20T04:17:09.818Z,24.67
2019-05-20T04:19:38.282Z,17.42
2019-05-20T04:22:09.556Z,17.87
2019-05-20T04:24:37.861Z,17.98
2019-05-20T04:27:07.176Z,21.57
2019-05-20T04:29:35.881Z,27.32
2019-05-20T04:32:07.734Z,22.95
2019-05-20T04:34:36.845Z,19.73
2019-05-20T04:37:05.713Z,22.50
2019-05-20T04:39:35.651Z,29.32
2019-05-20T04:44:35.636Z,19.57
2019-05-20T04:47:04.334Z,16.87
2019-05-20T04:49:33.751Z,22.50
2019-05-20T04:52:02.492Z,21.45
2019-05-20T04:54:31.194Z,18.87
2019-05-20T04:57:00.676Z,24.05
2019-05-20T04:59:29.294Z,23.47
2019-05-20T05:02:00.405Z,22.17
2019-05-20T05:04:28.750Z,25.43
2019-05-20T05:06:57.291Z,18.02
2019-05-20T05:09:25.668Z,19.30
2019-05-20T05:11:53.959Z,14.73
2019-05-20T05:14:23.341Z,14.47
2019-05-20T05:16:52.827Z,12.47
2019-05-20T05:19:22.673Z,16.23
2019-05-20T05:21:51.207Z,20.75
2019-05-20T05:24:19.713Z,17.25
2019-05-20T05:26:48.220Z,20.32
2019-05-20T05:29:16.825Z,15.13
2019-05-20T05:31:45.541Z,17.87
2019-05-20T05:34:14.604Z,15.58
2019-05-20T05:36:43.342Z,19.40
2019-05-20T05:39:11.967Z,16.42
2019-05-20T05:41:40.352Z,14.03
2019-05-20T05:44:09.848Z,22.82
2019-05-20T05:46:38.224Z,18.20
2019-05-20T05:49:06.731Z,14.95
2019-05-20T05:51:35.737Z,10.50
2019-05-20T05:54:05.269Z,10.72
2019-05-20T05:56:35.879Z,10.85
2019-05-20T05:59:05.404Z,9.75
2019-05-20T06:01:35.021Z,12.73
2019-05-20T06:04:03.540Z,11.38
2019-05-20T06:06:32.352Z,14.15
2019-05-20T06:09:01.700Z,11.28
2019-05-20T06:11:31.060Z,13.95
2019-05-20T06:14:01.488Z,8.83
2019-05-20T06:16:36.587Z,9.25
2019-05-20T06:19:01.727Z,9.95
2019-05-20T06:21:31.034Z,12.13
2019-05-20T06:24:00.076Z,10.93
2019-05-20T06:26:28.905Z,10.57
2019-05-20T06:29:02.922Z,8.28
2019-05-20T06:31:32.351Z,8.28
2019-05-20T06:34:00.685Z,12.33
2019-05-20T06:36:29.595Z,13.95
2019-05-20T06:39:14.084Z,7.37
2019-05-20T06:41:42.912Z,6.62
2019-05-20T06:44:11.952Z,8.68
2019-05-20T06:46:40.410Z,6.83
2019-05-20T06:49:09.477Z,12.68
2019-05-20T06:51:41.524Z,6.50
2019-05-20T06:54:11.963Z,3.90
2019-05-20T06:56:41.597Z,4.22
2019-05-20T06:59:10.591Z,5.58
2019-05-20T07:01:40.813Z,2.00
2019-05-20T07:04:10.823Z,2.62
2019-05-20T07:09:09.385Z,1.07
2019-05-20T07:11:39.930Z,1.33
2019-05-20T07:14:09.231Z,0.80
2019-05-20T07:16:41.201Z,0.72
2019-05-20T07:19:12.150Z,0.93
2019-05-20T07:21:44.050Z,0.65
2019-05-20T07:24:12.694Z,0.68
2019-05-20T07:26:41.163Z,0.40
2019-05-20T07:29:10.120Z,1.75
2019-05-20T07:31:40.991Z,1.33
2019-05-20T07:34:11.875Z,0.28
2019-05-20T07:36:41.574Z,0.75
2019-05-20T07:39:14.143Z,1.27
2019-05-20T07:41:43.267Z,0.30
2019-05-20T07:44:16.734Z,1.75
2019-05-20T07:46:45.551Z,0.37
2019-05-20T07:49:14.731Z,0.50
2019-05-20T07:51:43.347Z,1.87
2019-05-20T07:54:13.084Z,1.30
2019-05-20T07:59:10.665Z,0.20
2019-05-20T08:01:39.646Z,0.30
2019-05-20T08:04:08.384Z,2.08
2019-05-20T08:06:37.063Z,0.20
2019-05-20T08:09:07.500Z,0.30
2019-05-20T08:11:36.675Z,0.40
2019-05-20T08:14:05.358Z,0.65
2019-05-20T08:16:34.415Z,0.40
2019-05-20T08:19:03.224Z,0.55
2019-05-20T08:21:32.029Z,0.40
2019-05-20T08:24:00.585Z,1.07
2019-05-20T08:26:29.320Z,0.30
2019-05-20T08:28:58.009Z,0.47
2019-05-20T08:31:26.670Z,1.10
2019-05-20T08:33:57.879Z,0.90
2019-05-20T08:36:26.401Z,0.25
2019-05-20T08:38:55.219Z,0.37
2019-05-20T08:41:24.204Z,0.43
2019-05-20T08:43:53.052Z,2.12
2019-05-20T08:46:22.070Z,0.55
2019-05-20T08:48:50.714Z,0.68
2019-05-20T08:51:19.521Z,0.40
2019-05-20T08:53:47.957Z,1.30
2019-05-20T08:56:16.682Z,0.45
2019-05-20T08:58:45.687Z,0.50
2019-05-20T09:01:14.661Z,1.22
2019-05-20T09:03:43.667Z,0.72
2019-05-20T09:06:14.692Z,0.87
2019-05-20T09:08:45.370Z,0.72
2019-05-20T09:11:16.505Z,2.67
2019-05-20T09:13:45.739Z,0.60
2019-05-20T09:16:15.802Z,4.25
2019-05-20T09:18:44.681Z,0.95
2019-05-20T09:21:14.039Z,0.75
2019-05-20T09:23:42.495Z,1.57
2019-05-20T09:26:11.240Z,9.63
2019-05-20T09:28:40.086Z,0.80
2019-05-20T09:31:08.867Z,0.93
2019-05-20T09:33:38.454Z,0.90
2019-05-20T09:38:38.659Z,0.98
2019-05-20T09:41:08.154Z,0.80
2019-05-20T09:43:37.015Z,3.50
2019-05-20T09:46:08.187Z,1.53
2019-05-20T09:48:36.180Z,1.75
2019-05-20T09:51:15.453Z,1.50
2019-05-20T09:53:44.703Z,1.85
2019-05-20T09:56:14.263Z,2.02
2019-05-20T09:58:43.612Z,2.90
2019-05-20T10:01:12.703Z,2.12
2019-05-20T10:03:44.308Z,1.90
2019-05-20T10:06:13.118Z,3.65
2019-05-20T10:08:47.378Z,2.50
2019-05-20T10:11:16.609Z,2.72
2019-05-20T10:13:45.269Z,3.33
2019-05-20T10:16:14.133Z,2.75
2019-05-20T10:18:44.633Z,3.62
2019-05-20T10:21:13.550Z,3.00
2019-05-20T10:23:42.735Z,2.50
2019-05-20T10:26:11.425Z,4.95
2019-05-20T10:28:42.186Z,3.70
2019-05-20T10:31:11.163Z,4.95
2019-05-20T10:33:44.422Z,4.67
2019-05-20T10:36:14.826Z,4.47
2019-05-20T10:38:57.266Z,3.58
2019-05-20T10:41:14.682Z,4.30
2019-05-20T10:43:44.007Z,3.63
2019-05-20T10:46:12.660Z,5.35
2019-05-20T10:48:41.371Z,3.92
2019-05-20T10:51:10.547Z,3.87
2019-05-20T10:53:39.751Z,4.67
2019-05-20T10:56:08.503Z,3.40
2019-05-20T10:58:40.277Z,6.00
2019-05-20T11:01:08.692Z,3.77
2019-05-20T11:03:37.806Z,5.87
2019-05-20T11:06:07.079Z,4.40
2019-05-20T11:08:35.879Z,6.78
2019-05-20T11:11:04.893Z,2.65
2019-05-20T11:13:35.085Z,7.23
2019-05-20T11:16:04.064Z,6.58
2019-05-20T11:18:32.880Z,3.53
2019-05-20T11:21:01.868Z,2.65
2019-05-20T11:23:30.387Z,7.53
2019-05-20T11:25:58.937Z,2.98
2019-05-20T11:28:28.109Z,3.47
2019-05-20T11:31:09.220Z,3.80
2019-05-20T11:33:40.777Z,3.12
2019-05-20T11:36:16.038Z,3.02
2019-05-20T11:38:45.855Z,3.00
2019-05-20T11:43:48.665Z,3.25
2019-05-20T11:46:22.101Z,4.40
2019-05-20T11:48:52.526Z,2.85
2019-05-20T11:51:22.903Z,3.25
2019-05-20T11:53:56.034Z,6.72
2019-05-20T11:56:25.436Z,2.92
2019-05-20T11:58:59.456Z,4.37
2019-05-20T12:01:41.034Z,5.53
2019-05-20T12:04:14.627Z,3.50
2019-05-20T12:06:47.860Z,3.75
2019-05-20T12:09:19.459Z,6.40
2019-05-20T12:11:49.285Z,4.05
2019-05-20T12:14:24.712Z,4.33
2019-05-20T12:16:57.100Z,4.40
2019-05-20T12:19:26.953Z,7.65
2019-05-20T12:21:57.137Z,4.95
2019-05-20T12:24:28.324Z,6.65
2019-05-20T12:27:01.935Z,4.58
2019-05-20T12:29:33.170Z,5.78
2019-05-20T12:32:03.851Z,4.37
2019-05-20T12:34:35.198Z,3.87
2019-05-20T12:37:13.448Z,5.62
2019-05-20T12:39:42.872Z,4.00
2019-05-20T12:47:27.923Z,5.58
2019-05-20T12:49:58.380Z,4.87
2019-05-20T12:52:36.316Z,4.87
2019-05-20T12:55:10.408Z,4.53
2019-05-20T12:57:41.355Z,5.40
2019-05-20T13:00:17.523Z,4.83
2019-05-20T13:02:47.874Z,5.70
2019-05-20T13:05:19.983Z,3.37
2019-05-20T13:07:51.223Z,9.25
2019-05-20T13:10:29.848Z,3.65
2019-05-20T13:12:56.050Z,4.42
2019-05-20T13:15:27.000Z,5.55
2019-05-20T13:17:56.822Z,4.72
2019-05-20T13:20:29.258Z,3.10
2019-05-20T13:22:58.850Z,6.15
2019-05-20T13:25:30.259Z,2.87
2019-05-20T13:27:58.857Z,3.98
2019-05-20T13:30:31.180Z,4.87
2019-05-20T13:33:00.507Z,2.80
2019-05-20T13:35:30.693Z,4.58
2019-05-20T13:38:05.094Z,3.55
2019-05-20T13:40:45.869Z,6.87
2019-05-20T13:43:11.348Z,3.35
2019-05-20T13:45:39.709Z,4.17
2019-05-20T13:48:09.902Z,3.85
2019-05-20T13:50:43.718Z,2.75
2019-05-20T13:53:14.455Z,2.15
2019-05-20T13:55:45.405Z,2.47
2019-05-20T13:58:17.660Z,2.20
2019-05-20T14:00:50.760Z,2.72
2019-05-20T14:03:20.555Z,3.65
2019-05-20T14:05:50.194Z,2.33
2019-05-20T14:08:22.183Z,2.22
2019-05-20T14:11:03.484Z,2.02
2019-05-20T14:13:29.926Z,2.52
2019-05-20T14:16:01.202Z,2.70
2019-05-20T14:18:30.382Z,2.17
2019-05-20T14:21:01.698Z,3.60
2019-05-20T14:23:34.062Z,1.72
2019-05-20T14:26:03.372Z,3.27
2019-05-20T14:28:32.908Z,3.37
2019-05-20T14:31:05.815Z,2.33
2019-05-20T14:33:33.768Z,2.37
2019-05-20T14:36:04.295Z,5.25
2019-05-20T14:41:20.350Z,2.55
2019-05-20T14:43:40.125Z,5.85
2019-05-20T14:46:09.856Z,3.27
2019-05-20T14:51:09.086Z,5.10
2019-05-20T14:53:39.067Z,2.00
2019-05-20T14:56:10.893Z,3.62
2019-05-20T14:58:40.827Z,2.98
2019-05-20T15:03:38.866Z,1.87
2019-05-20T15:08:35.619Z,3.22
2019-05-20T15:11:04.603Z,7.50
2019-05-20T15:13:34.277Z,3.03
2019-05-20T15:16:03.175Z,3.42
2019-05-20T15:18:33.777Z,2.35
2019-05-20T15:21:05.215Z,2.90
2019-05-20T15:23:36.423Z,2.77
2019-05-20T15:26:08.793Z,5.10
2019-05-20T15:28:38.908Z,3.05
2019-05-20T15:31:11.515Z,4.37
2019-05-20T15:33:41.473Z,2.58
2019-05-20T15:38:40.241Z,2.23
2019-05-20T15:41:09.914Z,5.53
2019-05-20T15:43:38.461Z,4.40
2019-05-20T15:46:07.629Z,4.10
2019-05-20T15:48:36.819Z,2.83
2019-05-20T15:51:17.910Z,2.40
2019-05-20T15:53:48.649Z,2.52
2019-05-20T15:56:18.524Z,2.47
2019-05-20T16:01:17.328Z,2.27
2019-05-20T16:03:51.160Z,3.08
2019-05-20T16:06:19.075Z,2.45
2019-05-20T16:08:47.879Z,5.00
2019-05-20T16:11:16.987Z,2.80
2019-05-20T16:13:46.735Z,5.25
2019-05-20T16:16:15.011Z,3.55
2019-05-20T16:18:44.801Z,2.70
2019-05-20T16:23:42.796Z,2.42
2019-05-20T16:26:11.859Z,3.35
2019-05-20T16:28:43.059Z,5.92
2019-05-20T16:31:16.250Z,2.62
2019-05-20T16:33:48.511Z,3.92
2019-05-20T16:36:17.036Z,3.45
2019-05-20T16:38:46.844Z,2.62
2019-05-20T16:43:47.738Z,4.22
2019-05-20T16:46:16.809Z,2.33
2019-05-20T16:48:45.822Z,3.12
2019-05-20T16:51:14.690Z,2.52
2019-05-20T16:53:43.823Z,2.60
2019-05-20T16:56:12.594Z,2.67
2019-05-20T16:58:41.574Z,4.00
2019-05-20T17:01:10.439Z,2.80
2019-05-20T17:03:39.130Z,2.22
2019-05-20T17:06:08.022Z,2.47
2019-05-20T17:08:37.049Z,2.72
2019-05-20T17:11:08.136Z,1.95
2019-05-20T17:13:39.038Z,3.62
2019-05-20T17:16:08.047Z,2.80
2019-05-20T17:18:37.597Z,1.92
2019-05-20T17:21:16.566Z,4.58
2019-05-20T17:23:45.439Z,2.02
2019-05-20T17:26:22.558Z,3.87
2019-05-20T17:28:52.135Z,4.33
2019-05-20T17:31:20.808Z,2.55
2019-05-20T17:33:49.325Z,4.87
2019-05-20T17:36:18.057Z,4.08
2019-05-20T17:38:47.287Z,5.20
2019-05-20T17:41:19.743Z,2.58
2019-05-20T17:43:49.334Z,2.55
2019-05-20T17:46:19.355Z,2.70
2019-05-20T17:51:21.542Z,3.22
2019-05-20T17:53:51.256Z,5.42
2019-05-20T17:56:21.472Z,7.17
2019-05-20T17:58:51.847Z,5.97
2019-05-20T18:01:20.885Z,4.97
2019-05-20T18:03:50.685Z,4.03
2019-05-20T18:06:20.189Z,3.58
2019-05-20T18:08:50.402Z,4.80
2019-05-20T18:11:19.986Z,5.85
2019-05-20T18:13:49.676Z,3.17
2019-05-20T18:16:24.835Z,2.92
2019-05-20T18:18:53.907Z,3.00
2019-05-20T18:21:22.746Z,3.77
2019-05-20T18:23:51.491Z,4.40
2019-05-20T18:26:19.975Z,3.70
2019-05-20T18:28:51.246Z,3.87
2019-05-20T18:31:31.909Z,3.02
2019-05-20T18:33:52.877Z,5.85
2019-05-20T18:36:26.373Z,5.33
2019-05-20T18:39:06.119Z,6.20
2019-05-20T18:41:37.227Z,4.97
2019-05-20T18:44:09.030Z,4.55
2019-05-20T18:46:40.191Z,3.67
2019-05-20T18:49:16.336Z,3.80
2019-05-20T18:51:48.700Z,3.33
2019-05-20T18:54:26.549Z,3.80
2019-05-20T18:57:00.249Z,4.37
2019-05-20T18:59:29.511Z,3.52
2019-05-20T19:02:05.505Z,3.65
2019-05-20T19:04:35.938Z,4.87
2019-05-20T19:07:05.213Z,6.55
2019-05-20T19:09:36.264Z,3.45
2019-05-20T19:12:07.493Z,6.15
2019-05-20T19:14:38.781Z,4.20
2019-05-20T19:17:09.391Z,5.97
2019-05-20T19:19:38.433Z,8.78
2019-05-20T19:22:09.832Z,8.38
2019-05-20T19:24:39.595Z,4.40
2019-05-20T19:27:09.747Z,6.33
2019-05-20T19:29:38.635Z,5.47
2019-05-20T19:32:07.181Z,3.98
2019-05-20T19:34:36.900Z,5.37
2019-05-20T19:37:05.480Z,3.62
2019-05-20T19:39:34.793Z,4.95
2019-05-20T19:42:04.854Z,7.12
2019-05-20T19:47:01.806Z,4.50
2019-05-20T19:49:30.157Z,6.50
2019-05-20T19:51:58.693Z,5.05
2019-05-20T19:54:27.271Z,6.03
2019-05-20T19:56:59.300Z,5.12
2019-05-20T19:59:30.690Z,11.80
2019-05-20T20:01:59.951Z,6.28
2019-05-20T20:04:29.012Z,7.58
2019-05-20T20:06:58.360Z,5.67
2019-05-20T20:09:26.982Z,5.37
2019-05-20T20:11:55.665Z,5.22
2019-05-20T20:14:25.670Z,8.28
2019-05-20T20:19:22.618Z,4.67
2019-05-20T20:21:51.160Z,7.97
2019-05-20T20:24:19.696Z,5.65
2019-05-20T20:26:48.223Z,7.97
2019-05-20T20:29:16.605Z,5.97
2019-05-20T20:31:44.872Z,4.85
2019-05-20T20:34:13.209Z,6.67
2019-05-20T20:36:42.031Z,5.97
2019-05-20T20:39:10.649Z,5.75
2019-05-20T20:41:39.312Z,7.87
2019-05-20T20:44:08.091Z,6.62
2019-05-20T20:46:39.990Z,7.17
2019-05-20T20:49:07.374Z,5.90
2019-05-20T20:51:35.730Z,7.60
2019-05-20T20:54:04.582Z,8.18
2019-05-20T20:56:34.313Z,8.53
2019-05-20T20:59:02.974Z,6.08
2019-05-20T21:01:31.328Z,5.65
2019-05-20T21:04:00.201Z,6.33
2019-05-20T21:06:28.629Z,9.18
2019-05-20T21:08:57.191Z,5.62
2019-05-20T21:11:25.770Z,8.60
2019-05-20T21:13:55.226Z,5.55
2019-05-20T21:16:23.915Z,7.28
2019-05-20T21:18:56.384Z,9.03
2019-05-20T21:21:25.265Z,5.45
2019-05-20T21:23:57.994Z,6.67
2019-05-20T21:26:26.607Z,9.10
2019-05-20T21:28:56.397Z,8.78
2019-05-20T21:31:25.142Z,6.33
2019-05-20T21:33:53.659Z,5.35
2019-05-20T21:36:22.092Z,10.03
2019-05-20T21:38:50.611Z,6.72
2019-05-20T21:41:19.998Z,7.05
2019-05-20T21:43:48.453Z,12.00
2019-05-20T21:46:17.259Z,10.93
2019-05-20T21:48:46.833Z,7.53
2019-05-20T21:51:15.214Z,9.23
2019-05-20T21:54:00.870Z,7.95
2019-05-20T21:56:46.008Z,7.22
2019-05-20T21:59:11.615Z,7.22
2019-05-20T22:01:40.243Z,9.53
2019-05-20T22:04:09.078Z,9.28
2019-05-20T22:06:37.414Z,7.47
2019-05-20T22:09:08.978Z,10.28
2019-05-20T22:11:44.336Z,10.35
2019-05-20T22:14:14.328Z,9.78
2019-05-20T22:16:44.878Z,7.75
2019-05-20T22:19:18.666Z,13.48
2019-05-20T22:21:52.207Z,7.60
2019-05-20T22:24:21.154Z,9.80
2019-05-20T22:26:49.596Z,9.05
2019-05-20T22:29:22.059Z,10.90
2019-05-20T22:31:56.610Z,13.45
2019-05-20T22:34:27.868Z,10.40
2019-05-20T22:36:56.284Z,10.15
2019-05-20T22:39:24.761Z,12.07
2019-05-20T22:41:53.535Z,7.50
2019-05-20T22:44:21.940Z,8.33
2019-05-20T22:46:50.405Z,8.30
2019-05-20T22:49:19.302Z,7.25
2019-05-20T22:51:48.129Z,9.68
2019-05-20T22:54:16.612Z,12.58
2019-05-20T22:56:48.112Z,5.08
2019-05-20T22:59:16.583Z,6.75
2019-05-20T23:01:45.270Z,5.92
2019-05-20T23:04:13.931Z,5.60
2019-05-20T23:06:42.178Z,10.60
2019-05-20T23:09:10.992Z,8.20
2019-05-20T23:11:40.011Z,9.68
2019-05-20T23:14:08.541Z,9.85
2019-05-20T23:16:40.892Z,9.63
2019-05-20T23:19:10.084Z,12.30
2019-05-20T23:21:38.469Z,9.90
2019-05-20T23:24:07.049Z,16.27
2019-05-20T23:26:35.365Z,7.28
2019-05-20T23:29:03.626Z,8.10
2019-05-20T23:31:32.227Z,4.15
2019-05-20T23:34:12.387Z,4.70
2019-05-20T23:36:31.112Z,7.15
2019-05-20T23:38:59.688Z,7.60
2019-05-20T23:41:28.161Z,4.25
2019-05-20T23:43:56.540Z,5.53
2019-05-20T23:46:24.886Z,5.08
2019-05-20T23:48:53.221Z,5.85
2019-05-20T23:51:21.623Z,8.05
2019-05-20T23:53:50.791Z,8.53
2019-05-20T23:56:19.801Z,6.85
2019-05-20T23:58:48.730Z,9.80
